sensor_id;sensor_type;location;lat;lon;timestamp;P1;durP1;ratioP1;P2;durP2;ratioP2
46941;SDS011;32676;52.630;4.896;2023-10-13T00:01:01;12.57;;;4.88;;
46941;SDS011;32676;52.630;4.896;2023-10-13T00:03:29;13.63;;;5.82;;
46941;SDS011;32676;52.630;4.896;2023-10-13T00:05:57;15.82;;;6.18;;
46941;SDS011;32676;52.630;4.896;2023-10-13T00:08:25;14.05;;;6.32;;
46941;SDS011;32676;52.630;4.896;2023-10-13T00:10:55;16.42;;;6.57;;
46941;SDS011;32676;52.630;4.896;2023-10-13T00:13:25;12.88;;;6.70;;
46941;SDS011;32676;52.630;4.896;2023-10-13T00:15:52;16.10;;;6.47;;
46941;SDS011;32676;52.630;4.896;2023-10-13T00:18:23;14.68;;;7.15;;
46941;SDS011;32676;52.630;4.896;2023-10-13T00:20:51;13.65;;;7.13;;
46941;SDS011;32676;52.630;4.896;2023-10-13T00:23:21;20.15;;;7.57;;
46941;SDS011;32676;52.630;4.896;2023-10-13T00:25:51;19.83;;;6.28;;
46941;SDS011;32676;52.630;4.896;2023-10-13T00:28:25;15.93;;;7.15;;
46941;SDS011;32676;52.630;4.896;2023-10-13T00:31:00;18.48;;;7.68;;
46941;SDS011;32676;52.630;4.896;2023-10-13T00:33:35;9.85;;;7.47;;
46941;SDS011;32676;52.630;4.896;2023-10-13T00:36:03;22.23;;;9.05;;
46941;SDS011;32676;52.630;4.896;2023-10-13T00:38:30;14.77;;;7.07;;
46941;SDS011;32676;52.630;4.896;2023-10-13T00:40:57;20.65;;;8.05;;
46941;SDS011;32676;52.630;4.896;2023-10-13T00:43:30;19.40;;;9.13;;
46941;SDS011;32676;52.630;4.896;2023-10-13T00:46:03;24.17;;;7.90;;
46941;SDS011;32676;52.630;4.896;2023-10-13T00:48:33;14.43;;;8.40;;
46941;SDS011;32676;52.630;4.896;2023-10-13T00:51:07;22.00;;;8.15;;
46941;SDS011;32676;52.630;4.896;2023-10-13T00:53:43;17.42;;;8.98;;
46941;SDS011;32676;52.630;4.896;2023-10-13T00:56:12;19.00;;;8.50;;
46941;SDS011;32676;52.630;4.896;2023-10-13T00:58:46;22.13;;;9.45;;
46941;SDS011;32676;52.630;4.896;2023-10-13T01:01:15;19.65;;;8.20;;
46941;SDS011;32676;52.630;4.896;2023-10-13T01:03:44;17.02;;;9.10;;
46941;SDS011;32676;52.630;4.896;2023-10-13T01:06:13;18.85;;;9.82;;
46941;SDS011;32676;52.630;4.896;2023-10-13T01:08:41;22.48;;;8.63;;
46941;SDS011;32676;52.630;4.896;2023-10-13T01:11:09;11.77;;;7.13;;
46941;SDS011;32676;52.630;4.896;2023-10-13T01:13:35;19.85;;;8.00;;
46941;SDS011;32676;52.630;4.896;2023-10-13T01:16:03;21.65;;;7.28;;
46941;SDS011;32676;52.630;4.896;2023-10-13T01:18:29;14.43;;;6.60;;
46941;SDS011;32676;52.630;4.896;2023-10-13T01:20:56;19.50;;;6.32;;
46941;SDS011;32676;52.630;4.896;2023-10-13T01:23:26;13.70;;;6.95;;
46941;SDS011;32676;52.630;4.896;2023-10-13T01:26:03;13.07;;;7.28;;
46941;SDS011;32676;52.630;4.896;2023-10-13T01:28:30;14.77;;;7.15;;
46941;SDS011;32676;52.630;4.896;2023-10-13T01:31:09;13.02;;;7.90;;
46941;SDS011;32676;52.630;4.896;2023-10-13T01:33:36;15.73;;;8.13;;
46941;SDS011;32676;52.630;4.896;2023-10-13T01:36:02;22.70;;;8.50;;
46941;SDS011;32676;52.630;4.896;2023-10-13T01:38:33;21.30;;;11.13;;
46941;SDS011;32676;52.630;4.896;2023-10-13T01:41:01;23.77;;;10.13;;
46941;SDS011;32676;52.630;4.896;2023-10-13T01:43:30;21.35;;;10.65;;
46941;SDS011;32676;52.630;4.896;2023-10-13T01:45:56;18.38;;;9.82;;
46941;SDS011;32676;52.630;4.896;2023-10-13T01:48:22;23.30;;;8.77;;
46941;SDS011;32676;52.630;4.896;2023-10-13T01:50:48;19.33;;;11.00;;
46941;SDS011;32676;52.630;4.896;2023-10-13T01:53:20;17.88;;;8.30;;
46941;SDS011;32676;52.630;4.896;2023-10-13T01:55:49;21.55;;;8.77;;
46941;SDS011;32676;52.630;4.896;2023-10-13T01:58:15;17.92;;;8.93;;
46941;SDS011;32676;52.630;4.896;2023-10-13T02:00:43;10.65;;;6.07;;
46941;SDS011;32676;52.630;4.896;2023-10-13T02:05:45;18.45;;;6.28;;
46941;SDS011;32676;52.630;4.896;2023-10-13T02:08:13;32.80;;;6.68;;
46941;SDS011;32676;52.630;4.896;2023-10-13T02:13:16;12.35;;;4.88;;
46941;SDS011;32676;52.630;4.896;2023-10-13T02:20:53;12.30;;;4.65;;
46941;SDS011;32676;52.630;4.896;2023-10-13T02:23:29;12.23;;;5.53;;
46941;SDS011;32676;52.630;4.896;2023-10-13T02:31:01;15.38;;;5.38;;
46941;SDS011;32676;52.630;4.896;2023-10-13T02:33:28;13.10;;;5.10;;
46941;SDS011;32676;52.630;4.896;2023-10-13T02:35:55;15.75;;;5.30;;
46941;SDS011;32676;52.630;4.896;2023-10-13T02:38:22;13.20;;;4.70;;
46941;SDS011;32676;52.630;4.896;2023-10-13T02:41:00;13.27;;;3.58;;
46941;SDS011;32676;52.630;4.896;2023-10-13T02:43:31;15.48;;;4.03;;
46941;SDS011;32676;52.630;4.896;2023-10-13T02:46:00;18.42;;;3.40;;
46941;SDS011;32676;52.630;4.896;2023-10-13T02:48:28;13.85;;;3.88;;
46941;SDS011;32676;52.630;4.896;2023-10-13T02:50:56;15.52;;;3.10;;
46941;SDS011;32676;52.630;4.896;2023-10-13T02:53:27;14.40;;;3.70;;
46941;SDS011;32676;52.630;4.896;2023-10-13T02:55:53;16.70;;;4.32;;
46941;SDS011;32676;52.630;4.896;2023-10-13T02:58:22;16.10;;;3.63;;
46941;SDS011;32676;52.630;4.896;2023-10-13T03:00:47;11.45;;;3.33;;
46941;SDS011;32676;52.630;4.896;2023-10-13T03:03:16;16.65;;;4.00;;
46941;SDS011;32676;52.630;4.896;2023-10-13T03:05:43;15.52;;;3.00;;
46941;SDS011;32676;52.630;4.896;2023-10-13T03:08:11;18.38;;;3.17;;
46941;SDS011;32676;52.630;4.896;2023-10-13T03:10:36;9.85;;;4.60;;
46941;SDS011;32676;52.630;4.896;2023-10-13T03:13:10;8.70;;;2.70;;
46941;SDS011;32676;52.630;4.896;2023-10-13T03:15:36;21.83;;;3.50;;
46941;SDS011;32676;52.630;4.896;2023-10-13T03:18:02;12.80;;;3.67;;
46941;SDS011;32676;52.630;4.896;2023-10-13T03:20:30;16.00;;;4.15;;
46941;SDS011;32676;52.630;4.896;2023-10-13T03:22:56;9.73;;;4.53;;
46941;SDS011;32676;52.630;4.896;2023-10-13T03:25:23;12.52;;;4.72;;
46941;SDS011;32676;52.630;4.896;2023-10-13T03:27:54;18.50;;;5.65;;
46941;SDS011;32676;52.630;4.896;2023-10-13T03:30:32;15.38;;;5.55;;
46941;SDS011;32676;52.630;4.896;2023-10-13T03:33:02;20.00;;;8.05;;
46941;SDS011;32676;52.630;4.896;2023-10-13T03:35:34;18.17;;;7.60;;
46941;SDS011;32676;52.630;4.896;2023-10-13T03:38:05;18.50;;;9.00;;
46941;SDS011;32676;52.630;4.896;2023-10-13T03:40:41;18.40;;;9.65;;
46941;SDS011;32676;52.630;4.896;2023-10-13T03:43:13;20.58;;;11.00;;
46941;SDS011;32676;52.630;4.896;2023-10-13T03:45:42;23.08;;;12.48;;
46941;SDS011;32676;52.630;4.896;2023-10-13T03:48:13;21.30;;;12.18;;
46941;SDS011;32676;52.630;4.896;2023-10-13T03:50:47;23.25;;;12.77;;
46941;SDS011;32676;52.630;4.896;2023-10-13T03:53:23;21.50;;;12.93;;
46941;SDS011;32676;52.630;4.896;2023-10-13T03:55:50;22.58;;;12.63;;
46941;SDS011;32676;52.630;4.896;2023-10-13T03:58:33;21.15;;;12.13;;
46941;SDS011;32676;52.630;4.896;2023-10-13T04:01:00;19.33;;;11.65;;
46941;SDS011;32676;52.630;4.896;2023-10-13T04:03:26;23.85;;;11.82;;
46941;SDS011;32676;52.630;4.896;2023-10-13T04:06:06;18.63;;;12.13;;
46941;SDS011;32676;52.630;4.896;2023-10-13T04:08:33;19.65;;;10.52;;
46941;SDS011;32676;52.630;4.896;2023-10-13T04:11:13;15.70;;;9.68;;
46941;SDS011;32676;52.630;4.896;2023-10-13T04:13:58;17.50;;;9.75;;
46941;SDS011;32676;52.630;4.896;2023-10-13T04:16:53;11.77;;;9.13;;
46941;SDS011;32676;52.630;4.896;2023-10-13T04:19:19;12.45;;;8.02;;
46941;SDS011;32676;52.630;4.896;2023-10-13T04:21:50;11.75;;;9.80;;
46941;SDS011;32676;52.630;4.896;2023-10-13T04:24:39;13.15;;;8.18;;
46941;SDS011;32676;52.630;4.896;2023-10-13T04:30:00;11.48;;;8.73;;
46941;SDS011;32676;52.630;4.896;2023-10-13T04:37:54;10.85;;;7.22;;
46941;SDS011;32676;52.630;4.896;2023-10-13T04:40:26;10.50;;;6.32;;
46941;SDS011;32676;52.630;4.896;2023-10-13T04:50:39;11.73;;;6.70;;
46941;SDS011;32676;52.630;4.896;2023-10-13T04:53:11;9.02;;;5.47;;
46941;SDS011;32676;52.630;4.896;2023-10-13T04:55:53;7.90;;;5.60;;
46941;SDS011;32676;52.630;4.896;2023-10-13T04:58:32;7.68;;;4.05;;
46941;SDS011;32676;52.630;4.896;2023-10-13T05:01:31;6.35;;;3.67;;
46941;SDS011;32676;52.630;4.896;2023-10-13T05:04:15;6.25;;;4.07;;
46941;SDS011;32676;52.630;4.896;2023-10-13T05:06:55;11.07;;;4.20;;
46941;SDS011;32676;52.630;4.896;2023-10-13T05:09:46;11.52;;;4.05;;
46941;SDS011;32676;52.630;4.896;2023-10-13T05:12:30;7.55;;;2.92;;
46941;SDS011;32676;52.630;4.896;2023-10-13T05:15:14;4.63;;;2.40;;
46941;SDS011;32676;52.630;4.896;2023-10-13T05:17:58;7.43;;;2.70;;
46941;SDS011;32676;52.630;4.896;2023-10-13T05:20:42;9.87;;;3.20;;
46941;SDS011;32676;52.630;4.896;2023-10-13T05:23:26;6.53;;;2.25;;
46941;SDS011;32676;52.630;4.896;2023-10-13T05:31:22;9.05;;;3.55;;
46941;SDS011;32676;52.630;4.896;2023-10-13T05:34:06;9.98;;;4.05;;
46941;SDS011;32676;52.630;4.896;2023-10-13T05:36:50;12.13;;;4.07;;
46941;SDS011;32676;52.630;4.896;2023-10-13T05:39:34;5.35;;;3.50;;
46941;SDS011;32676;52.630;4.896;2023-10-13T05:42:18;14.13;;;3.83;;
46941;SDS011;32676;52.630;4.896;2023-10-13T05:45:02;11.80;;;2.92;;
46941;SDS011;32676;52.630;4.896;2023-10-13T05:48:02;13.80;;;2.58;;
46941;SDS011;32676;52.630;4.896;2023-10-13T05:50:36;24.75;;;5.80;;
46941;SDS011;32676;52.630;4.896;2023-10-13T05:53:20;25.15;;;7.07;;
46941;SDS011;32676;52.630;4.896;2023-10-13T05:56:04;42.77;;;6.33;;
46941;SDS011;32676;52.630;4.896;2023-10-13T05:58:48;33.67;;;7.65;;
46941;SDS011;32676;52.630;4.896;2023-10-13T06:01:32;25.83;;;5.77;;
46941;SDS011;32676;52.630;4.896;2023-10-13T06:04:18;36.85;;;7.95;;
46941;SDS011;32676;52.630;4.896;2023-10-13T06:07:00;27.67;;;4.82;;
46941;SDS011;32676;52.630;4.896;2023-10-13T06:09:44;27.15;;;6.55;;
46941;SDS011;32676;52.630;4.896;2023-10-13T06:12:27;50.13;;;7.57;;
46941;SDS011;32676;52.630;4.896;2023-10-13T06:15:26;44.10;;;9.30;;
46941;SDS011;32676;52.630;4.896;2023-10-13T06:18:10;33.05;;;6.38;;
46941;SDS011;32676;52.630;4.896;2023-10-13T06:21:04;40.97;;;9.70;;
46941;SDS011;32676;52.630;4.896;2023-10-13T06:23:48;30.90;;;5.82;;
46941;SDS011;32676;52.630;4.896;2023-10-13T06:26:32;40.85;;;7.85;;
46941;SDS011;32676;52.630;4.896;2023-10-13T06:29:16;36.97;;;9.80;;
46941;SDS011;32676;52.630;4.896;2023-10-13T06:31:44;34.78;;;8.88;;
46941;SDS011;32676;52.630;4.896;2023-10-13T06:34:11;40.65;;;8.90;;
46941;SDS011;32676;52.630;4.896;2023-10-13T06:36:42;33.40;;;6.38;;
46941;SDS011;32676;52.630;4.896;2023-10-13T06:39:11;34.22;;;5.97;;
46941;SDS011;32676;52.630;4.896;2023-10-13T06:42:00;27.75;;;6.20;;
46941;SDS011;32676;52.630;4.896;2023-10-13T06:44:27;47.83;;;7.38;;
46941;SDS011;32676;52.630;4.896;2023-10-13T06:46:57;22.88;;;4.43;;
46941;SDS011;32676;52.630;4.896;2023-10-13T06:49:24;18.05;;;5.03;;
46941;SDS011;32676;52.630;4.896;2023-10-13T06:51:51;33.85;;;6.15;;
46941;SDS011;32676;52.630;4.896;2023-10-13T06:54:18;31.63;;;5.65;;
46941;SDS011;32676;52.630;4.896;2023-10-13T06:56:45;29.75;;;5.25;;
46941;SDS011;32676;52.630;4.896;2023-10-13T06:59:12;40.88;;;7.28;;
46941;SDS011;32676;52.630;4.896;2023-10-13T07:01:39;32.08;;;7.07;;
46941;SDS011;32676;52.630;4.896;2023-10-13T07:04:07;26.33;;;5.05;;
46941;SDS011;32676;52.630;4.896;2023-10-13T07:06:39;23.60;;;5.35;;
46941;SDS011;32676;52.630;4.896;2023-10-13T07:09:11;24.67;;;4.78;;
46941;SDS011;32676;52.630;4.896;2023-10-13T07:12:01;24.33;;;4.45;;
46941;SDS011;32676;52.630;4.896;2023-10-13T07:14:31;21.30;;;4.65;;
46941;SDS011;32676;52.630;4.896;2023-10-13T07:17:00;22.50;;;4.72;;
46941;SDS011;32676;52.630;4.896;2023-10-13T07:19:28;14.52;;;3.78;;
46941;SDS011;32676;52.630;4.896;2023-10-13T07:21:54;20.33;;;4.30;;
46941;SDS011;32676;52.630;4.896;2023-10-13T07:24:25;17.67;;;5.57;;
46941;SDS011;32676;52.630;4.896;2023-10-13T07:26:56;11.45;;;3.28;;
46941;SDS011;32676;52.630;4.896;2023-10-13T07:29:28;14.07;;;3.78;;
46941;SDS011;32676;52.630;4.896;2023-10-13T07:31:54;23.48;;;4.28;;
46941;SDS011;32676;52.630;4.896;2023-10-13T07:34:21;13.57;;;4.35;;
46941;SDS011;32676;52.630;4.896;2023-10-13T07:36:51;17.20;;;4.07;;
46941;SDS011;32676;52.630;4.896;2023-10-13T07:39:20;16.38;;;4.30;;
46941;SDS011;32676;52.630;4.896;2023-10-13T07:41:48;12.52;;;3.60;;
46941;SDS011;32676;52.630;4.896;2023-10-13T07:44:19;11.77;;;3.20;;
46941;SDS011;32676;52.630;4.896;2023-10-13T07:46:50;17.30;;;4.95;;
46941;SDS011;32676;52.630;4.896;2023-10-13T07:49:25;12.85;;;4.47;;
46941;SDS011;32676;52.630;4.896;2023-10-13T07:51:55;20.10;;;5.15;;
46941;SDS011;32676;52.630;4.896;2023-10-13T07:54:25;20.38;;;5.15;;
46941;SDS011;32676;52.630;4.896;2023-10-13T07:56:54;10.80;;;4.90;;
46941;SDS011;32676;52.630;4.896;2023-10-13T07:59:21;15.30;;;4.82;;
46941;SDS011;32676;52.630;4.896;2023-10-13T08:01:49;13.95;;;4.50;;
46941;SDS011;32676;52.630;4.896;2023-10-13T08:04:37;15.07;;;4.88;;
46941;SDS011;32676;52.630;4.896;2023-10-13T08:07:02;12.40;;;4.57;;
46941;SDS011;32676;52.630;4.896;2023-10-13T08:09:37;15.93;;;5.63;;
46941;SDS011;32676;52.630;4.896;2023-10-13T08:12:07;15.63;;;5.25;;
46941;SDS011;32676;52.630;4.896;2023-10-13T08:14:37;19.42;;;4.05;;
46941;SDS011;32676;52.630;4.896;2023-10-13T08:17:05;25.63;;;6.05;;
46941;SDS011;32676;52.630;4.896;2023-10-13T08:19:33;17.73;;;5.68;;
46941;SDS011;32676;52.630;4.896;2023-10-13T08:22:07;18.33;;;4.50;;
46941;SDS011;32676;52.630;4.896;2023-10-13T08:24:50;21.23;;;5.25;;
46941;SDS011;32676;52.630;4.896;2023-10-13T08:27:39;24.45;;;4.95;;
46941;SDS011;32676;52.630;4.896;2023-10-13T08:30:18;15.88;;;4.78;;
46941;SDS011;32676;52.630;4.896;2023-10-13T08:32:54;15.88;;;4.85;;
46941;SDS011;32676;52.630;4.896;2023-10-13T08:35:22;19.02;;;6.00;;
46941;SDS011;32676;52.630;4.896;2023-10-13T08:37:59;14.57;;;4.13;;
46941;SDS011;32676;52.630;4.896;2023-10-13T08:40:29;16.35;;;4.63;;
46941;SDS011;32676;52.630;4.896;2023-10-13T08:43:15;10.98;;;4.03;;
46941;SDS011;32676;52.630;4.896;2023-10-13T08:45:43;16.30;;;4.53;;
46941;SDS011;32676;52.630;4.896;2023-10-13T08:48:24;17.02;;;5.05;;
46941;SDS011;32676;52.630;4.896;2023-10-13T08:50:57;19.75;;;5.03;;
46941;SDS011;32676;52.630;4.896;2023-10-13T08:53:31;14.70;;;3.45;;
46941;SDS011;32676;52.630;4.896;2023-10-13T08:55:59;18.42;;;4.07;;
46941;SDS011;32676;52.630;4.896;2023-10-13T08:58:41;20.92;;;5.90;;
46941;SDS011;32676;52.630;4.896;2023-10-13T09:01:32;24.85;;;4.45;;
46941;SDS011;32676;52.630;4.896;2023-10-13T09:04:02;16.15;;;3.53;;
46941;SDS011;32676;52.630;4.896;2023-10-13T09:06:46;19.15;;;4.35;;
46941;SDS011;32676;52.630;4.896;2023-10-13T09:09:25;18.48;;;3.38;;
46941;SDS011;32676;52.630;4.896;2023-10-13T09:11:59;14.88;;;4.78;;
46941;SDS011;32676;52.630;4.896;2023-10-13T09:17:04;14.65;;;3.97;;
46941;SDS011;32676;52.630;4.896;2023-10-13T09:19:46;16.15;;;3.47;;
46941;SDS011;32676;52.630;4.896;2023-10-13T09:22:19;13.65;;;3.78;;
46941;SDS011;32676;52.630;4.896;2023-10-13T09:24:51;11.73;;;3.35;;
46941;SDS011;32676;52.630;4.896;2023-10-13T09:27:16;24.92;;;4.18;;
46941;SDS011;32676;52.630;4.896;2023-10-13T09:29:44;16.50;;;3.25;;
46941;SDS011;32676;52.630;4.896;2023-10-13T09:32:20;13.10;;;4.13;;
46941;SDS011;32676;52.630;4.896;2023-10-13T09:34:46;19.42;;;4.22;;
46941;SDS011;32676;52.630;4.896;2023-10-13T09:37:13;13.23;;;3.65;;
46941;SDS011;32676;52.630;4.896;2023-10-13T09:39:45;18.63;;;3.30;;
46941;SDS011;32676;52.630;4.896;2023-10-13T09:42:13;22.98;;;4.65;;
46941;SDS011;32676;52.630;4.896;2023-10-13T09:44:44;21.05;;;5.30;;
46941;SDS011;32676;52.630;4.896;2023-10-13T09:47:16;25.80;;;4.07;;
46941;SDS011;32676;52.630;4.896;2023-10-13T09:49:54;23.58;;;3.90;;
46941;SDS011;32676;52.630;4.896;2023-10-13T09:52:28;27.17;;;4.55;;
46941;SDS011;32676;52.630;4.896;2023-10-13T09:55:07;24.70;;;4.20;;
46941;SDS011;32676;52.630;4.896;2023-10-13T09:57:41;17.88;;;3.67;;
46941;SDS011;32676;52.630;4.896;2023-10-13T10:05:40;24.70;;;3.75;;
46941;SDS011;32676;52.630;4.896;2023-10-13T10:08:06;18.98;;;4.30;;
46941;SDS011;32676;52.630;4.896;2023-10-13T10:10:42;18.20;;;5.00;;
46941;SDS011;32676;52.630;4.896;2023-10-13T10:13:13;15.95;;;4.05;;
46941;SDS011;32676;52.630;4.896;2023-10-13T10:15:49;23.20;;;4.10;;
46941;SDS011;32676;52.630;4.896;2023-10-13T10:18:19;29.27;;;4.78;;
46941;SDS011;32676;52.630;4.896;2023-10-13T10:20:47;19.48;;;3.88;;
46941;SDS011;32676;52.630;4.896;2023-10-13T10:23:26;17.38;;;5.32;;
46941;SDS011;32676;52.630;4.896;2023-10-13T10:25:54;14.48;;;3.90;;
46941;SDS011;32676;52.630;4.896;2023-10-13T10:28:36;28.98;;;5.68;;
46941;SDS011;32676;52.630;4.896;2023-10-13T10:31:07;16.23;;;3.53;;
46941;SDS011;32676;52.630;4.896;2023-10-13T10:33:37;15.30;;;3.33;;
46941;SDS011;32676;52.630;4.896;2023-10-13T10:36:04;17.15;;;4.15;;
46941;SDS011;32676;52.630;4.896;2023-10-13T10:38:32;23.58;;;4.15;;
46941;SDS011;32676;52.630;4.896;2023-10-13T10:41:03;23.23;;;5.35;;
46941;SDS011;32676;52.630;4.896;2023-10-13T10:43:35;12.82;;;3.40;;
46941;SDS011;32676;52.630;4.896;2023-10-13T10:46:16;20.55;;;4.07;;
46941;SDS011;32676;52.630;4.896;2023-10-13T10:48:51;16.65;;;3.47;;
46941;SDS011;32676;52.630;4.896;2023-10-13T10:51:26;20.58;;;4.32;;
46941;SDS011;32676;52.630;4.896;2023-10-13T10:53:57;29.58;;;3.78;;
46941;SDS011;32676;52.630;4.896;2023-10-13T10:56:36;37.42;;;6.05;;
46941;SDS011;32676;52.630;4.896;2023-10-13T10:59:03;18.65;;;3.67;;
46941;SDS011;32676;52.630;4.896;2023-10-13T11:01:33;19.55;;;4.68;;
46941;SDS011;32676;52.630;4.896;2023-10-13T11:04:04;46.13;;;6.55;;
46941;SDS011;32676;52.630;4.896;2023-10-13T11:06:44;27.63;;;3.97;;
46941;SDS011;32676;52.630;4.896;2023-10-13T11:09:12;24.85;;;4.78;;
46941;SDS011;32676;52.630;4.896;2023-10-13T11:11:53;26.42;;;5.20;;
46941;SDS011;32676;52.630;4.896;2023-10-13T11:14:22;26.55;;;4.60;;
46941;SDS011;32676;52.630;4.896;2023-10-13T11:16:51;18.73;;;3.80;;
46941;SDS011;32676;52.630;4.896;2023-10-13T11:19:19;14.45;;;2.80;;
46941;SDS011;32676;52.630;4.896;2023-10-13T11:21:50;24.92;;;4.10;;
46941;SDS011;32676;52.630;4.896;2023-10-13T11:24:18;25.13;;;5.25;;
46941;SDS011;32676;52.630;4.896;2023-10-13T11:26:46;21.25;;;4.10;;
46941;SDS011;32676;52.630;4.896;2023-10-13T11:29:17;11.85;;;3.65;;
46941;SDS011;32676;52.630;4.896;2023-10-13T11:31:45;12.32;;;3.92;;
46941;SDS011;32676;52.630;4.896;2023-10-13T11:34:20;22.57;;;3.73;;
46941;SDS011;32676;52.630;4.896;2023-10-13T11:36:46;20.52;;;3.90;;
46941;SDS011;32676;52.630;4.896;2023-10-13T11:39:13;22.95;;;5.93;;
46941;SDS011;32676;52.630;4.896;2023-10-13T11:41:44;31.40;;;4.53;;
46941;SDS011;32676;52.630;4.896;2023-10-13T11:44:18;32.10;;;5.53;;
46941;SDS011;32676;52.630;4.896;2023-10-13T11:46:56;19.23;;;4.82;;
46941;SDS011;32676;52.630;4.896;2023-10-13T11:49:34;18.02;;;4.05;;
46941;SDS011;32676;52.630;4.896;2023-10-13T11:52:03;15.73;;;4.82;;
46941;SDS011;32676;52.630;4.896;2023-10-13T11:54:44;24.48;;;5.13;;
46941;SDS011;32676;52.630;4.896;2023-10-13T11:57:12;29.65;;;4.65;;
46941;SDS011;32676;52.630;4.896;2023-10-13T11:59:41;17.23;;;4.85;;
46941;SDS011;32676;52.630;4.896;2023-10-13T12:02:18;29.92;;;5.95;;
46941;SDS011;32676;52.630;4.896;2023-10-13T12:05:05;30.13;;;5.13;;
46941;SDS011;32676;52.630;4.896;2023-10-13T12:07:37;29.25;;;6.72;;
46941;SDS011;32676;52.630;4.896;2023-10-13T12:10:13;20.90;;;5.55;;
46941;SDS011;32676;52.630;4.896;2023-10-13T12:12:58;19.55;;;5.60;;
46941;SDS011;32676;52.630;4.896;2023-10-13T12:15:30;18.35;;;5.30;;
46941;SDS011;32676;52.630;4.896;2023-10-13T12:18:02;25.58;;;5.75;;
46941;SDS011;32676;52.630;4.896;2023-10-13T12:20:31;27.58;;;5.93;;
46941;SDS011;32676;52.630;4.896;2023-10-13T12:23:01;26.85;;;7.32;;
46941;SDS011;32676;52.630;4.896;2023-10-13T12:25:40;27.67;;;7.05;;
46941;SDS011;32676;52.630;4.896;2023-10-13T12:28:25;21.25;;;6.45;;
46941;SDS011;32676;52.630;4.896;2023-10-13T12:30:54;28.23;;;6.95;;
46941;SDS011;32676;52.630;4.896;2023-10-13T12:33:22;35.88;;;8.77;;
46941;SDS011;32676;52.630;4.896;2023-10-13T12:35:56;33.63;;;6.82;;
46941;SDS011;32676;52.630;4.896;2023-10-13T12:38:40;37.13;;;8.57;;
46941;SDS011;32676;52.630;4.896;2023-10-13T12:41:24;25.67;;;7.88;;
46941;SDS011;32676;52.630;4.896;2023-10-13T12:44:10;35.33;;;6.78;;
46941;SDS011;32676;52.630;4.896;2023-10-13T12:46:55;36.00;;;8.00;;
46941;SDS011;32676;52.630;4.896;2023-10-13T12:49:38;33.80;;;7.85;;
46941;SDS011;32676;52.630;4.896;2023-10-13T12:52:18;27.65;;;7.47;;
46941;SDS011;32676;52.630;4.896;2023-10-13T12:54:45;35.13;;;6.65;;
46941;SDS011;32676;52.630;4.896;2023-10-13T12:57:23;47.45;;;8.82;;
46941;SDS011;32676;52.630;4.896;2023-10-13T12:59:51;28.58;;;7.30;;
46941;SDS011;32676;52.630;4.896;2023-10-13T13:02:19;30.98;;;7.35;;
46941;SDS011;32676;52.630;4.896;2023-10-13T13:04:46;37.78;;;6.75;;
46941;SDS011;32676;52.630;4.896;2023-10-13T13:07:16;34.75;;;6.88;;
46941;SDS011;32676;52.630;4.896;2023-10-13T13:09:44;32.42;;;6.82;;
46941;SDS011;32676;52.630;4.896;2023-10-13T13:12:10;27.60;;;5.88;;
46941;SDS011;32676;52.630;4.896;2023-10-13T13:14:38;30.65;;;6.97;;
46941;SDS011;32676;52.630;4.896;2023-10-13T13:17:06;33.28;;;7.95;;
46941;SDS011;32676;52.630;4.896;2023-10-13T13:19:36;33.63;;;6.85;;
46941;SDS011;32676;52.630;4.896;2023-10-13T13:22:04;36.72;;;7.38;;
46941;SDS011;32676;52.630;4.896;2023-10-13T13:24:36;27.52;;;7.07;;
46941;SDS011;32676;52.630;4.896;2023-10-13T13:27:09;30.33;;;6.85;;
46941;SDS011;32676;52.630;4.896;2023-10-13T13:29:39;31.50;;;6.68;;
46941;SDS011;32676;52.630;4.896;2023-10-13T13:32:05;34.90;;;6.80;;
46941;SDS011;32676;52.630;4.896;2023-10-13T13:34:42;39.40;;;7.60;;
46941;SDS011;32676;52.630;4.896;2023-10-13T13:37:08;34.95;;;8.40;;
46941;SDS011;32676;52.630;4.896;2023-10-13T13:39:37;30.90;;;6.88;;
46941;SDS011;32676;52.630;4.896;2023-10-13T13:42:09;35.65;;;7.55;;
46941;SDS011;32676;52.630;4.896;2023-10-13T13:44:43;36.45;;;8.05;;
46941;SDS011;32676;52.630;4.896;2023-10-13T13:47:11;36.10;;;7.15;;
46941;SDS011;32676;52.630;4.896;2023-10-13T14:03:48;33.75;;;7.35;;
46941;SDS011;32676;52.630;4.896;2023-10-13T14:06:20;34.97;;;8.43;;
46941;SDS011;32676;52.630;4.896;2023-10-13T14:08:50;45.40;;;8.60;;
46941;SDS011;32676;52.630;4.896;2023-10-13T14:11:21;35.67;;;9.57;;
46941;SDS011;32676;52.630;4.896;2023-10-13T14:14:04;33.50;;;8.02;;
46941;SDS011;32676;52.630;4.896;2023-10-13T14:16:38;41.08;;;8.85;;
46941;SDS011;32676;52.630;4.896;2023-10-13T14:19:10;30.38;;;7.72;;
46941;SDS011;32676;52.630;4.896;2023-10-13T14:21:51;34.15;;;7.47;;
46941;SDS011;32676;52.630;4.896;2023-10-13T14:24:19;37.97;;;8.40;;
46941;SDS011;32676;52.630;4.896;2023-10-13T14:26:53;41.03;;;8.20;;
46941;SDS011;32676;52.630;4.896;2023-10-13T14:29:20;36.28;;;7.63;;
46941;SDS011;32676;52.630;4.896;2023-10-13T14:31:51;41.15;;;8.02;;
46941;SDS011;32676;52.630;4.896;2023-10-13T14:34:19;35.05;;;9.00;;
46941;SDS011;32676;52.630;4.896;2023-10-13T14:36:47;40.80;;;7.72;;
46941;SDS011;32676;52.630;4.896;2023-10-13T14:39:13;44.22;;;7.82;;
46941;SDS011;32676;52.630;4.896;2023-10-13T14:41:40;46.08;;;9.50;;
46941;SDS011;32676;52.630;4.896;2023-10-13T14:44:07;54.55;;;8.77;;
46941;SDS011;32676;52.630;4.896;2023-10-13T14:46:34;51.35;;;10.35;;
46941;SDS011;32676;52.630;4.896;2023-10-13T14:49:04;40.63;;;8.07;;
46941;SDS011;32676;52.630;4.896;2023-10-13T14:51:32;44.50;;;9.05;;
46941;SDS011;32676;52.630;4.896;2023-10-13T14:54:04;33.47;;;7.85;;
46941;SDS011;32676;52.630;4.896;2023-10-13T14:56:31;43.75;;;7.68;;
46941;SDS011;32676;52.630;4.896;2023-10-13T14:58:57;34.70;;;8.98;;
46941;SDS011;32676;52.630;4.896;2023-10-13T15:01:24;37.80;;;7.53;;
46941;SDS011;32676;52.630;4.896;2023-10-13T15:03:52;42.10;;;8.95;;
46941;SDS011;32676;52.630;4.896;2023-10-13T15:06:20;46.63;;;8.82;;
46941;SDS011;32676;52.630;4.896;2023-10-13T15:08:51;37.72;;;7.95;;
46941;SDS011;32676;52.630;4.896;2023-10-13T15:11:19;44.50;;;8.27;;
46941;SDS011;32676;52.630;4.896;2023-10-13T15:13:46;41.90;;;9.05;;
46941;SDS011;32676;52.630;4.896;2023-10-13T15:16:14;43.97;;;9.00;;
46941;SDS011;32676;52.630;4.896;2023-10-13T15:18:42;42.33;;;8.15;;
46941;SDS011;32676;52.630;4.896;2023-10-13T15:21:09;47.70;;;9.82;;
46941;SDS011;32676;52.630;4.896;2023-10-13T15:23:36;41.75;;;6.95;;
46941;SDS011;32676;52.630;4.896;2023-10-13T15:26:08;28.67;;;6.82;;
46941;SDS011;32676;52.630;4.896;2023-10-13T15:28:35;40.88;;;6.50;;
46941;SDS011;32676;52.630;4.896;2023-10-13T15:31:05;33.33;;;6.68;;
46941;SDS011;32676;52.630;4.896;2023-10-13T15:33:50;40.67;;;6.95;;
46941;SDS011;32676;52.630;4.896;2023-10-13T15:36:19;42.25;;;7.22;;
46941;SDS011;32676;52.630;4.896;2023-10-13T15:38:48;42.53;;;8.95;;
46941;SDS011;32676;52.630;4.896;2023-10-13T15:41:23;39.15;;;7.55;;
46941;SDS011;32676;52.630;4.896;2023-10-13T15:43:49;52.78;;;7.90;;
46941;SDS011;32676;52.630;4.896;2023-10-13T15:46:17;27.98;;;6.80;;
46941;SDS011;32676;52.630;4.896;2023-10-13T15:48:45;38.20;;;8.82;;
46941;SDS011;32676;52.630;4.896;2023-10-13T15:51:12;39.40;;;7.43;;
46941;SDS011;32676;52.630;4.896;2023-10-13T15:53:39;46.45;;;8.48;;
46941;SDS011;32676;52.630;4.896;2023-10-13T15:56:05;39.70;;;8.18;;
46941;SDS011;32676;52.630;4.896;2023-10-13T15:58:38;40.97;;;7.70;;
46941;SDS011;32676;52.630;4.896;2023-10-13T16:01:05;44.78;;;7.82;;
46941;SDS011;32676;52.630;4.896;2023-10-13T16:03:33;34.30;;;5.68;;